createdAt,value
2023-01-11T00:04:31.127Z,3.53
2023-01-11T00:09:29.923Z,3.42
2023-01-11T00:14:28.650Z,3.37
2023-01-11T00:19:27.437Z,3.57
2023-01-11T00:24:26.269Z,3.41
2023-01-11T00:29:25.039Z,3.38
2023-01-11T00:34:24.329Z,3.20
2023-01-11T00:39:23.073Z,3.17
2023-01-11T00:44:40.507Z,3.28
2023-01-11T00:49:39.629Z,3.19
2023-01-11T00:54:39.939Z,3.32
2023-01-11T00:59:41.852Z,3.12
2023-01-11T01:04:40.930Z,3.07
2023-01-11T01:09:39.737Z,3.44
2023-01-11T01:14:38.932Z,3.54
2023-01-11T01:19:39.179Z,3.50
2023-01-11T01:24:37.972Z,3.45
2023-01-11T01:29:36.752Z,3.28
2023-01-11T01:34:37.555Z,3.56
2023-01-11T01:39:36.294Z,3.67
2023-01-11T01:45:21.160Z,3.55
2023-01-11T01:50:32.063Z,3.49
2023-01-11T01:55:35.443Z,3.50
2023-01-11T02:00:37.870Z,3.71
2023-01-11T02:05:36.655Z,3.66
2023-01-11T02:10:36.485Z,3.57
2023-01-11T02:15:36.133Z,3.48
2023-01-11T02:20:34.950Z,3.79
2023-01-11T02:26:01.610Z,3.86
2023-01-11T02:31:39.544Z,3.88
2023-01-11T02:37:07.563Z,4.01
2023-01-11T02:42:40.043Z,4.01
2023-01-11T02:47:49.551Z,4.23
2023-01-11T02:53:00.406Z,4.25
2023-01-11T02:58:02.921Z,4.25
2023-01-11T03:03:09.809Z,4.24
2023-01-11T03:08:30.437Z,4.47
2023-01-11T03:13:56.572Z,4.42
2023-01-11T03:19:16.356Z,4.22
2023-01-11T03:24:24.156Z,4.45
2023-01-11T03:29:29.637Z,4.54
2023-01-11T03:34:56.654Z,4.31
2023-01-11T03:40:04.498Z,4.42
2023-01-11T03:45:04.633Z,4.42
2023-01-11T03:50:06.900Z,4.50
2023-01-11T03:55:09.863Z,4.85
2023-01-11T04:00:09.729Z,4.76
2023-01-11T04:05:10.601Z,4.79
2023-01-11T04:10:10.184Z,4.67
2023-01-11T04:15:10.017Z,4.90
2023-01-11T04:20:10.398Z,5.01
2023-01-11T04:25:09.828Z,4.90
2023-01-11T04:30:10.765Z,4.72
2023-01-11T04:35:09.678Z,4.76
2023-01-11T04:40:09.407Z,5.09
2023-01-11T04:45:08.784Z,5.05
2023-01-11T04:50:08.655Z,5.09
2023-01-11T04:55:08.141Z,5.18
2023-01-11T05:00:10.777Z,5.07
2023-01-11T05:05:10.536Z,5.34
2023-01-11T05:10:09.839Z,5.03
2023-01-11T05:15:09.445Z,5.42
2023-01-11T05:20:09.021Z,5.09
2023-01-11T05:25:08.280Z,7.25
2023-01-11T05:30:07.974Z,9.49
2023-01-11T05:35:10.113Z,9.43
2023-01-11T05:40:09.473Z,9.55
2023-01-11T05:45:28.431Z,8.90
2023-01-11T05:50:27.251Z,6.64
2023-01-11T05:55:25.989Z,5.92
2023-01-11T06:00:24.838Z,5.57
2023-01-11T06:05:23.634Z,5.39
2023-01-11T06:10:22.427Z,5.34
2023-01-11T06:15:21.152Z,5.49
2023-01-11T06:20:19.972Z,5.29
2023-01-11T06:25:18.787Z,5.28
2023-01-11T06:30:18.001Z,5.34
2023-01-11T06:35:16.844Z,5.52
2023-01-11T06:40:15.621Z,5.64
2023-01-11T06:45:14.437Z,5.82
2023-01-11T06:50:13.226Z,5.58
2023-01-11T06:55:12.084Z,5.70
2023-01-11T07:00:11.532Z,5.64
2023-01-11T07:05:10.984Z,5.76
2023-01-11T07:10:12.577Z,6.03
2023-01-11T07:15:12.054Z,5.88
2023-01-11T07:20:11.727Z,6.00
2023-01-11T07:25:10.471Z,6.08
2023-01-11T07:30:10.004Z,6.04
2023-01-11T07:35:09.488Z,6.00
2023-01-11T07:40:08.954Z,5.73
2023-01-11T07:45:08.374Z,5.93
2023-01-11T07:50:07.918Z,5.92
2023-01-11T07:55:06.931Z,5.85
2023-01-11T08:00:06.437Z,5.92
2023-01-11T08:05:10.500Z,6.06
2023-01-11T08:10:09.799Z,5.99
2023-01-11T08:15:10.512Z,6.23
2023-01-11T08:20:10.006Z,6.37
2023-01-11T08:25:09.418Z,6.51
2023-01-11T08:30:09.122Z,6.67
2023-01-11T08:35:08.426Z,6.53
2023-01-11T08:40:08.019Z,6.47
2023-01-11T08:45:07.501Z,6.46
2023-01-11T08:50:08.300Z,6.37
2023-01-11T08:55:08.190Z,6.60
2023-01-11T09:00:08.621Z,6.72
2023-01-11T09:05:07.855Z,6.45
2023-01-11T09:10:07.108Z,6.75
2023-01-11T09:15:06.631Z,6.93
2023-01-11T09:20:06.010Z,6.90
2023-01-11T09:25:05.685Z,6.96
2023-01-11T09:30:05.594Z,7.07
2023-01-11T09:35:05.305Z,7.10
2023-01-11T09:40:04.572Z,7.10
2023-01-11T09:45:15.578Z,7.27
2023-01-11T09:50:17.380Z,7.24
2023-01-11T09:55:23.278Z,7.72
2023-01-11T10:00:26.604Z,7.62
2023-01-11T10:05:28.603Z,7.42
2023-01-11T10:18:28.731Z,7.87
2023-01-11T10:21:42.056Z,8.14
2023-01-11T10:26:42.091Z,8.13
2023-01-11T10:31:45.954Z,8.01
2023-01-11T10:37:05.099Z,8.08
2023-01-11T10:43:03.840Z,8.18
2023-01-11T10:48:23.764Z,7.85
2023-01-11T10:53:28.515Z,7.88
2023-01-11T10:58:46.497Z,8.02
2023-01-11T11:03:51.375Z,8.11
2023-01-11T11:09:09.345Z,7.86
2023-01-11T11:14:30.186Z,7.89
2023-01-11T11:19:32.979Z,8.03
2023-01-11T11:24:38.576Z,8.41
2023-01-11T11:29:43.162Z,8.48
2023-01-11T11:34:48.527Z,8.19
2023-01-11T11:39:50.200Z,8.27
2023-01-11T11:45:07.347Z,7.96
2023-01-11T11:50:27.408Z,8.09
2023-01-11T11:55:35.879Z,8.24
2023-01-11T12:00:41.749Z,8.29
2023-01-11T12:05:58.378Z,8.22
2023-01-11T12:11:05.334Z,8.38
2023-01-11T12:16:07.497Z,8.38
2023-01-11T12:21:19.241Z,8.15
2023-01-11T12:27:02.354Z,8.26
2023-01-11T12:32:50.911Z,8.33
2023-01-11T12:38:34.708Z,8.62
2023-01-11T12:44:27.526Z,8.57
2023-01-11T12:49:38.396Z,8.54
2023-01-11T12:54:39.865Z,8.43
2023-01-11T12:59:57.482Z,8.29
2023-01-11T13:05:14.555Z,8.44
2023-01-11T13:10:34.856Z,8.57
2023-01-11T13:16:17.133Z,8.51
2023-01-11T13:21:34.277Z,8.46
2023-01-11T13:26:40.191Z,8.53
2023-01-11T13:31:40.956Z,8.43
2023-01-11T13:36:45.746Z,8.58
2023-01-11T13:41:58.152Z,8.48
2023-01-11T13:47:35.408Z,8.54
2023-01-11T13:52:49.580Z,8.58
2023-01-11T13:58:29.134Z,8.65
2023-01-11T14:03:45.141Z,8.84
2023-01-11T14:09:28.403Z,8.63
2023-01-11T14:14:37.268Z,8.70
2023-01-11T14:20:01.169Z,8.57
2023-01-11T14:25:15.831Z,8.56
2023-01-11T14:30:32.509Z,8.37
2023-01-11T14:35:46.267Z,8.47
2023-01-11T14:41:01.779Z,8.55
2023-01-11T14:46:09.574Z,8.44
2023-01-11T14:51:35.025Z,8.41
2023-01-11T14:56:42.780Z,8.35
2023-01-11T15:02:03.501Z,8.40
2023-01-11T15:07:21.225Z,8.30
2023-01-11T15:12:23.193Z,8.46
2023-01-11T15:17:45.383Z,8.22
2023-01-11T15:22:45.317Z,8.12
2023-01-11T15:27:44.029Z,8.19
2023-01-11T15:32:43.930Z,8.16
2023-01-11T15:38:33.928Z,8.07
2023-01-11T15:43:55.104Z,8.10
2023-01-11T15:48:56.783Z,8.08
2023-01-11T15:53:58.202Z,8.22
2023-01-11T15:59:18.241Z,8.37
2023-01-11T16:04:40.684Z,8.34
2023-01-11T16:09:58.074Z,8.50
2023-01-11T16:15:16.167Z,8.49
2023-01-11T16:20:21.033Z,8.68
2023-01-11T16:25:21.359Z,8.86
2023-01-11T16:30:20.486Z,8.88
2023-01-11T16:35:21.213Z,8.91
2023-01-11T16:40:29.552Z,9.10
2023-01-11T16:45:49.394Z,9.23
2023-01-11T16:51:00.797Z,9.18
2023-01-11T16:56:05.172Z,9.20
2023-01-11T17:01:11.453Z,9.13
2023-01-11T17:06:10.209Z,9.28
2023-01-11T17:11:17.463Z,9.52
2023-01-11T17:16:17.127Z,9.30
2023-01-11T17:21:23.346Z,9.44
2023-01-11T17:26:29.069Z,9.46
2023-01-11T17:31:32.324Z,9.62
2023-01-11T17:36:32.420Z,9.59
2023-01-11T17:41:52.861Z,9.68
2023-01-11T17:46:51.700Z,9.69
2023-01-11T17:51:50.683Z,9.46
2023-01-11T17:57:00.841Z,9.67
2023-01-11T18:02:10.809Z,9.64
2023-01-11T18:07:17.705Z,9.56
2023-01-11T18:12:19.401Z,9.61
2023-01-11T18:17:30.713Z,9.64
2023-01-11T18:22:31.099Z,9.30
2023-01-11T18:27:34.952Z,9.61
2023-01-11T18:32:42.529Z,9.31
2023-01-11T18:37:41.264Z,9.40
2023-01-11T18:42:40.655Z,9.55
2023-01-11T18:47:39.719Z,9.42
2023-01-11T18:52:39.012Z,9.36
2023-01-11T18:57:37.832Z,9.28
2023-01-11T19:02:42.936Z,9.23
2023-01-11T19:07:42.230Z,9.15
2023-01-11T19:12:41.325Z,9.36
2023-01-11T19:17:40.158Z,12.02
2023-01-11T19:22:38.968Z,11.96
2023-01-11T19:27:38.079Z,9.96
2023-01-11T19:32:36.867Z,9.69
2023-01-11T19:37:37.676Z,9.77
2023-01-11T19:42:38.284Z,9.59
2023-01-11T19:47:37.122Z,9.57
2023-01-11T19:52:35.916Z,9.42
2023-01-11T19:57:34.737Z,9.35
2023-01-11T20:02:33.624Z,9.29
2023-01-11T20:07:33.329Z,9.19
2023-01-11T20:12:32.085Z,9.26
2023-01-11T20:17:30.799Z,9.30
2023-01-11T20:22:29.677Z,9.32
2023-01-11T20:27:28.482Z,9.21
2023-01-11T20:32:41.449Z,9.37
2023-01-11T20:37:40.858Z,9.22
2023-01-11T20:42:39.609Z,9.06
2023-01-11T20:47:38.864Z,9.16
2023-01-11T20:52:37.601Z,9.08
2023-01-11T20:57:36.436Z,8.96
2023-01-11T21:02:35.821Z,8.95
2023-01-11T21:07:35.001Z,9.04
2023-01-11T21:12:33.769Z,9.07
2023-01-11T21:17:32.544Z,9.04
2023-01-11T21:22:31.312Z,8.91
2023-01-11T21:27:30.285Z,8.88
2023-01-11T21:32:28.999Z,8.94
2023-01-11T21:37:27.779Z,8.84
2023-01-11T21:42:26.623Z,8.83
2023-01-11T21:47:25.404Z,8.69
2023-01-11T21:52:24.127Z,8.64
2023-01-11T21:57:22.852Z,8.67
2023-01-11T22:02:21.586Z,8.62
2023-01-11T22:07:20.310Z,8.61
2023-01-11T22:12:19.112Z,8.31
2023-01-11T22:17:18.032Z,8.47
2023-01-11T22:22:16.780Z,8.26
2023-01-11T22:27:15.611Z,8.32
2023-01-11T22:32:14.440Z,8.23
2023-01-11T22:37:13.186Z,8.18
2023-01-11T22:42:11.920Z,8.03
2023-01-11T22:47:10.666Z,8.02
2023-01-11T22:52:09.449Z,7.86
2023-01-11T22:57:08.193Z,7.72
2023-01-11T23:02:06.952Z,7.92
2023-01-11T23:07:05.705Z,7.51
2023-01-11T23:12:24.739Z,7.60
2023-01-11T23:17:23.460Z,7.74
2023-01-11T23:22:22.392Z,7.61
2023-01-11T23:27:21.204Z,7.43
2023-01-11T23:32:20.001Z,7.38
2023-01-11T23:37:18.709Z,7.11
2023-01-11T23:42:26.724Z,6.97
2023-01-11T23:47:29.437Z,7.05
2023-01-11T23:52:30.844Z,7.00
2023-01-11T23:57:29.544Z,7.17
